Time;durP1;ratioP1;P1;durP2;ratioP2;P2;SDS_P1;SDS_P2;PMS_P1;PMS_P2;Temp;Humidity;BMP_temperature;BMP_pressure;BME280_temperature;BME280_humidity;BME280_pressure;Samples;Min_cycle;Max_cycle;Signal;HPM_P1;HPM_P2
2022/07/13 00:02:03;;;;;;;1.53;1.10;;;18.40;99.90;;;;;;4957618;29;20229;-73
2022/07/13 00:04:28;;;;;;;2.30;1.50;;;18.30;99.90;;;;;;4957448;28;20544;-72
2022/07/13 00:06:54;;;;;;;1.30;1.20;;;18.30;99.90;;;;;;4957287;29;20174;-72
2022/07/13 00:09:19;;;;;;;1.33;1.23;;;18.30;99.90;;;;;;4957213;29;20170;-72
2022/07/13 00:11:45;;;;;;;1.53;1.40;;;18.30;99.90;;;;;;4957276;29;20184;-74
2022/07/13 00:14:10;;;;;;;1.93;1.50;;;18.30;99.90;;;;;;4957149;28;20203;-72
2022/07/13 00:16:36;;;;;;;1.80;1.40;;;18.20;99.90;;;;;;4956904;29;20277;-73
2022/07/13 00:19:01;;;;;;;3.37;1.83;;;18.20;99.90;;;;;;4957043;29;20228;-73
2022/07/13 00:21:27;;;;;;;2.30;1.53;;;18.10;99.90;;;;;;4956800;29;20208;-73
2022/07/13 00:23:52;;;;;;;2.07;1.40;;;18.10;99.90;;;;;;4956895;28;20276;-73
2022/07/13 00:26:18;;;;;;;1.10;1.00;;;18.10;99.90;;;;;;4956863;29;20261;-73
2022/07/13 00:28:43;;;;;;;5.13;1.60;;;18.20;99.90;;;;;;4956854;29;20208;-73
2022/07/13 00:31:09;;;;;;;1.70;1.60;;;18.20;99.90;;;;;;4956790;29;20174;-73
2022/07/13 00:33:34;;;;;;;1.97;1.57;;;18.20;99.90;;;;;;4956692;28;20209;-73
2022/07/13 00:36:00;;;;;;;2.00;1.27;;;18.20;99.90;;;;;;4956620;29;20204;-73
2022/07/13 00:38:26;;;;;;;1.13;1.03;;;18.30;99.90;;;;;;4956707;29;20182;-73
2022/07/13 00:40:51;;;;;;;1.47;1.37;;;18.40;99.90;;;;;;4956873;29;20675;-74
2022/07/13 00:43:17;;;;;;;1.80;1.30;;;18.40;99.90;;;;;;4956703;28;20198;-73
2022/07/13 00:45:43;;;;;;;0.90;0.90;;;18.40;99.90;;;;;;4956525;29;20173;-72
2022/07/13 00:48:10;;;;;;;1.60;1.40;;;18.40;99.90;;;;;;4956474;29;20474;-74
2022/07/13 00:50:35;;;;;;;1.40;1.30;;;18.40;99.90;;;;;;4956584;28;20205;-72
2022/07/13 00:53:01;;;;;;;1.60;1.40;;;18.40;99.90;;;;;;4982833;23;20812;-71
2022/07/13 00:55:28;;;;;;;1.10;1.00;;;18.40;99.90;;;;;;5014407;28;20536;-70
2022/07/13 00:57:54;;;;;;;1.30;1.20;;;18.50;99.90;;;;;;5014683;28;20172;-71
2022/07/13 01:00:19;;;;;;;1.30;1.20;;;18.50;99.90;;;;;;5014578;28;20421;-71
2022/07/13 01:02:46;;;;;;;2.33;1.70;;;18.60;99.90;;;;;;5014533;28;20828;-69
2022/07/13 01:05:13;;;;;;;1.27;1.10;;;18.60;99.90;;;;;;5013628;28;20189;-70
2022/07/13 01:07:39;;;;;;;2.00;1.30;;;18.60;99.90;;;;;;5014417;28;20448;-69
2022/07/13 01:10:07;;;;;;;2.53;1.37;;;18.60;99.90;;;;;;5014119;28;20406;-70
2022/07/13 01:12:35;;;;;;;2.03;1.80;;;18.60;99.90;;;;;;5013409;28;20540;-70
2022/07/13 01:15:02;;;;;;;2.00;1.47;;;18.50;99.90;;;;;;5012541;28;20461;-70
2022/07/13 01:17:29;;;;;;;1.23;1.13;;;18.60;99.90;;;;;;5013924;28;20403;-69
2022/07/13 01:19:56;;;;;;;3.80;1.83;;;18.70;99.90;;;;;;5014001;28;20415;-69
2022/07/13 01:22:25;;;;;;;2.37;1.43;;;18.70;99.90;;;;;;5013928;28;20458;-70
2022/07/13 01:24:52;;;;;;;1.53;1.30;;;18.70;99.90;;;;;;5013689;28;20424;-70
2022/07/13 01:27:19;;;;;;;1.77;1.53;;;18.70;99.90;;;;;;5013945;28;20480;-70
2022/07/13 01:29:44;;;;;;;1.90;1.30;;;18.80;99.90;;;;;;5013796;28;20410;-70
2022/07/13 01:32:10;;;;;;;1.67;1.50;;;18.70;99.90;;;;;;5013761;28;20414;-70
2022/07/13 01:34:36;;;;;;;1.73;1.40;;;18.80;99.90;;;;;;5013539;28;20207;-70
2022/07/13 01:37:02;;;;;;;1.63;1.50;;;18.90;99.90;;;;;;5013716;28;20181;-70
2022/07/13 01:39:27;;;;;;;2.17;1.57;;;18.80;99.90;;;;;;5013810;28;20662;-70
2022/07/13 01:41:53;;;;;;;1.43;1.33;;;18.90;99.90;;;;;;5013471;28;20450;-70
2022/07/13 01:44:18;;;;;;;1.80;1.40;;;19.00;99.90;;;;;;5013542;28;20221;-70
2022/07/13 01:46:44;;;;;;;1.50;1.20;;;18.90;99.90;;;;;;5013407;28;20185;-70
2022/07/13 01:49:10;;;;;;;1.33;1.23;;;18.90;99.90;;;;;;5013979;28;20166;-70
2022/07/13 01:51:36;;;;;;;1.53;1.30;;;18.80;99.90;;;;;;5013919;28;20208;-70
2022/07/13 01:54:01;;;;;;;2.20;1.30;;;18.80;99.90;;;;;;5013397;28;20208;-70
2022/07/13 01:56:27;;;;;;;2.60;1.83;;;18.80;99.90;;;;;;5013479;28;20171;-70
2022/07/13 01:58:52;;;;;;;1.80;1.50;;;18.80;99.90;;;;;;5013305;28;20195;-70
2022/07/13 02:01:18;;;;;;;2.03;1.50;;;18.80;99.90;;;;;;5013349;28;20205;-70
2022/07/13 02:03:44;;;;;;;2.07;1.30;;;18.80;99.90;;;;;;5013214;28;20214;-70
2022/07/13 02:06:10;;;;;;;1.77;1.50;;;18.80;99.90;;;;;;5013247;28;20654;-70
2022/07/13 02:08:35;;;;;;;2.60;2.40;;;18.70;99.90;;;;;;5013259;28;20222;-70
2022/07/13 02:11:01;;;;;;;3.63;2.10;;;18.80;99.90;;;;;;5013263;28;20403;-71
2022/07/13 02:13:27;;;;;;;2.00;1.87;;;18.70;99.90;;;;;;5013247;28;20268;-70
2022/07/13 02:15:52;;;;;;;3.17;2.00;;;18.80;99.90;;;;;;5013174;28;20179;-70
2022/07/13 02:18:18;;;;;;;2.70;1.80;;;18.80;99.90;;;;;;5013271;28;20180;-70
2022/07/13 02:20:44;;;;;;;1.80;1.43;;;18.80;99.90;;;;;;5011790;28;20209;-70
2022/07/13 02:23:10;;;;;;;2.17;1.93;;;18.80;99.90;;;;;;5013224;28;20574;-70
2022/07/13 02:25:37;;;;;;;1.30;1.20;;;18.80;99.90;;;;;;5013160;28;20178;-70
2022/07/13 02:28:04;;;;;;;2.17;1.60;;;18.80;99.90;;;;;;5012965;28;20658;-71
2022/07/13 02:30:30;;;;;;;1.73;1.27;;;18.70;99.90;;;;;;5015929;28;20419;-70
2022/07/13 02:32:56;;;;;;;1.73;1.63;;;18.80;99.90;;;;;;5015737;28;20449;-70
2022/07/13 02:35:21;;;;;;;1.50;1.40;;;18.80;99.90;;;;;;5012821;28;20410;-71
2022/07/13 02:37:47;;;;;;;1.60;1.40;;;18.90;99.90;;;;;;5012480;28;20183;-70
2022/07/13 02:40:12;;;;;;;2.10;1.40;;;18.80;99.90;;;;;;5012366;28;20187;-70
2022/07/13 02:42:38;;;;;;;1.53;1.40;;;18.80;99.90;;;;;;5012160;28;20622;-71
2022/07/13 02:45:05;;;;;;;1.67;1.50;;;18.70;99.90;;;;;;5012130;28;20186;-70
2022/07/13 02:47:31;;;;;;;3.80;1.83;;;18.70;99.90;;;;;;5012143;28;20266;-70
2022/07/13 02:49:56;;;;;;;1.67;1.57;;;18.70;99.90;;;;;;5012193;28;20443;-70
2022/07/13 02:52:22;;;;;;;1.87;1.50;;;18.70;99.90;;;;;;5012218;28;20187;-70
2022/07/13 02:54:48;;;;;;;1.47;1.37;;;18.70;99.90;;;;;;5011877;28;20214;-70
2022/07/13 02:57:13;;;;;;;2.47;1.43;;;18.70;99.90;;;;;;5011962;28;20226;-70
2022/07/13 02:59:39;;;;;;;1.50;1.40;;;18.60;99.90;;;;;;5011998;28;20658;-70
2022/07/13 03:02:06;;;;;;;1.80;1.47;;;18.60;99.90;;;;;;5012099;28;20546;-70
2022/07/13 03:04:32;;;;;;;1.50;1.20;;;18.60;99.90;;;;;;5012071;28;20194;-70
2022/07/13 03:06:58;;;;;;;1.63;1.40;;;18.60;99.90;;;;;;5011906;28;20517;-70
2022/07/13 03:09:23;;;;;;;1.63;1.53;;;18.60;99.90;;;;;;5012011;28;20485;-70
2022/07/13 03:11:50;;;;;;;1.40;1.17;;;18.60;99.90;;;;;;5012177;28;20202;-70
2022/07/13 03:14:16;;;;;;;2.77;1.87;;;18.60;99.90;;;;;;5012234;28;20184;-70
2022/07/13 03:16:42;;;;;;;1.43;1.33;;;18.60;99.90;;;;;;5011927;28;20413;-70
2022/07/13 03:19:08;;;;;;;1.77;1.63;;;18.60;99.90;;;;;;5012089;28;20416;-70
2022/07/13 03:21:33;;;;;;;1.67;1.30;;;18.70;99.90;;;;;;5011754;28;20207;-70
2022/07/13 03:23:59;;;;;;;2.20;2.03;;;18.60;99.90;;;;;;5011794;28;20207;-70
2022/07/13 03:26:24;;;;;;;1.60;1.50;;;18.60;99.90;;;;;;5011726;28;20169;-70
2022/07/13 03:28:50;;;;;;;1.67;1.30;;;18.70;99.90;;;;;;5012044;28;20656;-70
2022/07/13 03:31:17;;;;;;;1.30;1.20;;;18.60;99.90;;;;;;5011952;28;20233;-69
2022/07/13 03:33:42;;;;;;;1.37;1.27;;;18.70;99.90;;;;;;5011488;28;20213;-70
2022/07/13 03:36:08;;;;;;;2.60;1.70;;;18.70;99.90;;;;;;5011341;28;20498;-70
2022/07/13 03:38:34;;;;;;;1.63;1.30;;;18.70;99.90;;;;;;5011676;28;20171;-70
2022/07/13 03:41:00;;;;;;;1.80;1.40;;;18.60;99.90;;;;;;5011378;28;20237;-70
2022/07/13 03:43:26;;;;;;;2.23;2.03;;;18.60;99.90;;;;;;5012113;28;20466;-70
2022/07/13 03:45:52;;;;;;;2.13;1.70;;;18.70;99.90;;;;;;5012132;28;20180;-70
2022/07/13 03:48:18;;;;;;;2.90;2.50;;;18.70;99.90;;;;;;5011685;28;20649;-70
2022/07/13 03:50:44;;;;;;;3.17;2.30;;;18.70;99.90;;;;;;5011706;28;20219;-70
2022/07/13 03:53:09;;;;;;;2.57;2.20;;;18.70;99.90;;;;;;5011384;28;20468;-70
2022/07/13 03:55:36;;;;;;;2.70;2.40;;;18.70;99.90;;;;;;5011853;28;20446;-70
2022/07/13 03:58:02;;;;;;;3.23;2.50;;;18.80;99.90;;;;;;5011464;28;20530;-71
2022/07/13 04:00:27;;;;;;;3.33;2.00;;;18.80;99.90;;;;;;5011491;28;20407;-70
2022/07/13 04:02:53;;;;;;;3.20;2.10;;;18.80;99.90;;;;;;5011276;28;20918;-71
2022/07/13 04:05:18;;;;;;;2.40;2.10;;;18.80;99.90;;;;;;5011352;28;20536;-70
2022/07/13 04:07:44;;;;;;;21.67;16.73;;;18.80;99.90;;;;;;5011294;28;20247;-71
2022/07/13 04:10:09;;;;;;;3.57;2.93;;;18.90;99.90;;;;;;5011168;28;20172;-71
2022/07/13 04:12:35;;;;;;;3.40;2.13;;;18.90;99.90;;;;;;5011619;28;20181;-75
2022/07/13 04:15:00;;;;;;;3.57;2.30;;;18.90;99.90;;;;;;5014747;28;20189;-72
2022/07/13 04:17:26;;;;;;;5.33;1.83;;;18.90;99.90;;;;;;5014958;28;20322;-70
2022/07/13 04:19:51;;;;;;;2.30;2.10;;;19.00;99.90;;;;;;5013397;28;20172;-70
2022/07/13 04:22:17;;;;;;;2.13;1.60;;;19.00;99.90;;;;;;5011333;28;20208;-71
2022/07/13 04:24:42;;;;;;;1.67;1.47;;;19.00;99.90;;;;;;5011113;28;20284;-69
2022/07/13 04:27:08;;;;;;;2.63;1.43;;;19.10;99.90;;;;;;5010984;28;20262;-70
2022/07/13 04:29:34;;;;;;;2.60;1.60;;;19.10;99.90;;;;;;5011102;28;20171;-70
2022/07/13 04:31:59;;;;;;;3.73;1.73;;;19.10;99.90;;;;;;5011196;28;20178;-70
2022/07/13 04:34:25;;;;;;;1.53;1.30;;;19.20;99.90;;;;;;5011041;28;20223;-70
2022/07/13 04:36:51;;;;;;;1.67;1.57;;;19.20;99.90;;;;;;5011407;28;20256;-70
2022/07/13 04:39:17;;;;;;;2.07;1.87;;;19.20;99.90;;;;;;5011374;28;20766;-70
2022/07/13 04:41:43;;;;;;;1.40;1.03;;;19.30;99.90;;;;;;5011169;28;20543;-71
2022/07/13 04:44:08;;;;;;;1.50;1.40;;;19.30;99.90;;;;;;5011006;28;20191;-70
2022/07/13 04:46:34;;;;;;;1.50;1.40;;;19.30;99.90;;;;;;5011886;28;20171;-69
2022/07/13 04:49:00;;;;;;;1.83;1.67;;;19.40;99.90;;;;;;5014453;28;20168;-70
2022/07/13 04:51:25;;;;;;;2.23;2.00;;;19.50;99.90;;;;;;5014490;28;20630;-70
2022/07/13 04:53:51;;;;;;;1.93;1.83;;;19.60;99.90;;;;;;5014318;28;20208;-71
2022/07/13 04:56:16;;;;;;;19.80;13.20;;;19.60;99.90;;;;;;5014333;28;20521;-71
2022/07/13 04:58:42;;;;;;;14.83;10.20;;;19.70;99.90;;;;;;5014482;28;20173;-70
2022/07/13 05:01:08;;;;;;;8.60;6.67;;;19.80;99.90;;;;;;5013247;28;20197;-70
2022/07/13 05:03:33;;;;;;;5.60;4.30;;;19.80;99.90;;;;;;5014536;28;20193;-70
2022/07/13 05:06:00;;;;;;;3.53;3.17;;;19.80;99.90;;;;;;5014137;28;20170;-70
2022/07/13 05:08:26;;;;;;;2.10;1.87;;;19.90;99.90;;;;;;5012838;28;20173;-71
2022/07/13 05:10:53;;;;;;;2.20;1.90;;;20.00;99.90;;;;;;5014346;28;20443;-71
2022/07/13 05:13:18;;;;;;;1.40;1.30;;;20.00;99.90;;;;;;5015671;28;20538;-71
2022/07/13 05:15:45;;;;;;;2.07;1.80;;;20.10;99.90;;;;;;5014629;28;20515;-69
2022/07/13 05:18:11;;;;;;;1.90;1.27;;;20.10;99.90;;;;;;5015167;28;20189;-70
2022/07/13 05:20:36;;;;;;;4.50;3.23;;;20.20;99.90;;;;;;5014690;28;20460;-70
2022/07/13 05:23:02;;;;;;;2.50;1.43;;;20.30;99.90;;;;;;5014604;28;20421;-71
2022/07/13 05:25:28;;;;;;;2.70;2.10;;;20.40;99.90;;;;;;5014692;28;20166;-70
2022/07/13 05:27:54;;;;;;;2.23;1.93;;;20.50;99.90;;;;;;5014726;28;20405;-70
2022/07/13 05:30:19;;;;;;;1.80;1.70;;;20.50;99.90;;;;;;5014606;28;20181;-71
2022/07/13 05:32:45;;;;;;;1.53;1.43;;;20.60;99.90;;;;;;5014938;28;20173;-70
2022/07/13 05:35:11;;;;;;;2.00;1.80;;;20.70;99.90;;;;;;5013590;28;20540;-70
2022/07/13 05:37:37;;;;;;;1.63;1.53;;;20.70;99.90;;;;;;5013686;28;20250;-71
2022/07/13 05:40:03;;;;;;;2.00;1.90;;;20.60;99.90;;;;;;5013770;28;20169;-71
2022/07/13 05:42:29;;;;;;;2.00;1.80;;;20.70;99.90;;;;;;5013447;28;20196;-70
2022/07/13 05:44:55;;;;;;;1.83;1.50;;;20.70;99.90;;;;;;5013652;28;20440;-71
2022/07/13 05:47:20;;;;;;;2.03;1.93;;;20.70;99.90;;;;;;5013548;28;21076;-70
2022/07/13 05:49:46;;;;;;;2.20;1.70;;;20.70;99.90;;;;;;5013335;28;20258;-70
2022/07/13 05:52:11;;;;;;;1.90;1.80;;;20.70;99.90;;;;;;5013158;28;20361;-69
2022/07/13 05:54:37;;;;;;;3.83;1.80;;;20.70;99.90;;;;;;5012942;28;20204;-69
2022/07/13 05:57:03;;;;;;;1.83;1.73;;;20.70;99.90;;;;;;5012927;28;20171;-69
2022/07/13 05:59:28;;;;;;;1.73;1.30;;;20.90;99.90;;;;;;5011816;28;20200;-69
2022/07/13 06:01:54;;;;;;;2.10;1.90;;;21.10;99.90;;;;;;5013110;28;20260;-69
2022/07/13 06:04:20;;;;;;;2.20;1.40;;;21.10;99.90;;;;;;5013033;28;20249;-69
2022/07/13 06:06:46;;;;;;;2.50;1.70;;;21.40;99.90;;;;;;5013989;28;20179;-69
2022/07/13 06:09:12;;;;;;;2.00;1.80;;;21.50;99.90;;;;;;5013567;28;20198;-68
2022/07/13 06:11:38;;;;;;;1.80;1.40;;;21.60;99.90;;;;;;5013186;28;20783;-69
2022/07/13 06:14:03;;;;;;;2.73;1.97;;;21.60;99.90;;;;;;5013008;28;20205;-69
2022/07/13 06:16:29;;;;;;;2.63;2.27;;;21.50;99.90;;;;;;5012707;28;20426;-69
2022/07/13 06:18:54;;;;;;;2.50;2.23;;;21.30;99.90;;;;;;5010510;28;20284;-69
2022/07/13 06:21:20;;;;;;;1.93;1.57;;;21.30;99.90;;;;;;5011937;28;20197;-69
2022/07/13 06:23:45;;;;;;;2.60;1.50;;;21.50;99.90;;;;;;5012316;28;20200;-70
2022/07/13 06:26:11;;;;;;;1.83;1.60;;;21.50;99.90;;;;;;5012571;28;20174;-70
2022/07/13 06:28:37;;;;;;;2.40;1.77;;;21.90;99.90;;;;;;5012654;28;20174;-69
2022/07/13 06:31:02;;;;;;;1.53;1.43;;;21.80;99.90;;;;;;5012504;28;20188;-70
2022/07/13 06:33:28;;;;;;;1.60;1.20;;;21.90;99.90;;;;;;5012658;28;20193;-70
2022/07/13 06:35:53;;;;;;;1.80;1.53;;;22.20;99.90;;;;;;5012069;28;20584;-71
2022/07/13 06:38:19;;;;;;;2.93;1.00;;;22.10;99.90;;;;;;5012456;28;20182;-71
2022/07/13 06:40:47;;;;;;;1.03;0.90;;;22.30;99.90;;;;;;5012158;28;20621;-72
2022/07/13 06:43:13;;;;;;;1.30;1.20;;;22.80;99.90;;;;;;5012557;28;20294;-71
2022/07/13 06:45:39;;;;;;;1.30;1.20;;;22.50;99.90;;;;;;5012228;28;20418;-71
2022/07/13 06:48:05;;;;;;;2.40;1.60;;;22.50;99.90;;;;;;4992656;28;20403;-71
2022/07/13 06:50:31;;;;;;;1.73;1.60;;;22.90;99.90;;;;;;4992482;28;20404;-72
2022/07/13 06:52:56;;;;;;;1.83;1.33;;;22.80;99.90;;;;;;4994339;28;20186;-70
2022/07/13 06:55:22;;;;;;;4.23;3.77;;;22.90;99.90;;;;;;5008712;23;20234;-66
2022/07/13 06:57:47;;;;;;;4.30;3.00;;;23.00;99.90;;;;;;4979240;28;20181;-65
2022/07/13 07:00:13;;;;;;;1.77;1.60;;;23.70;99.90;;;;;;4971916;28;20209;-64
2022/07/13 07:02:39;;;;;;;14.23;11.00;;;24.00;99.90;;;;;;4972084;28;20674;-64
2022/07/13 07:05:09;;;;;;;1.67;1.47;;;23.80;99.90;;;;;;4971595;28;20716;-64
2022/07/13 07:07:35;;;;;;;1.23;1.13;;;23.70;99.90;;;;;;4986177;28;20240;-64
2022/07/13 07:10:01;;;;;;;1.50;1.40;;;23.80;99.90;;;;;;4986480;28;20423;-64
2022/07/13 07:12:26;;;;;;;1.90;1.30;;;23.80;99.90;;;;;;4991125;28;20916;-63
2022/07/13 07:14:52;;;;;;;1.20;1.10;;;23.90;99.90;;;;;;4991069;28;20193;-64
2022/07/13 07:17:17;;;;;;;4.80;3.83;;;23.90;99.90;;;;;;4990872;28;20251;-64
2022/07/13 07:19:44;;;;;;;2.10;1.87;;;24.20;99.90;;;;;;4991176;28;20175;-64
2022/07/13 07:22:10;;;;;;;1.87;1.67;;;24.80;99.90;;;;;;4991185;28;20198;-64
2022/07/13 07:24:36;;;;;;;1.33;1.23;;;25.20;99.90;;;;;;4990861;28;20518;-64
2022/07/13 07:27:02;;;;;;;1.37;1.23;;;25.10;99.90;;;;;;4991091;28;20532;-64
2022/07/13 07:29:28;;;;;;;1.80;1.50;;;24.90;99.90;;;;;;4990869;28;20283;-63
2022/07/13 07:31:53;;;;;;;1.10;1.00;;;25.10;99.90;;;;;;4990938;28;20457;-63
2022/07/13 07:34:19;;;;;;;1.10;0.90;;;24.90;99.90;;;;;;4990631;28;20564;-64
2022/07/13 07:36:44;;;;;;;1.27;1.17;;;25.20;99.90;;;;;;4991050;28;20613;-65
2022/07/13 07:39:11;;;;;;;1.53;1.33;;;25.10;99.90;;;;;;4990830;28;20250;-65
2022/07/13 07:41:37;;;;;;;1.10;1.00;;;25.10;99.90;;;;;;4989559;28;20194;-65
2022/07/13 07:44:02;;;;;;;1.20;1.10;;;24.80;99.90;;;;;;4989870;28;20585;-64
2022/07/13 07:46:28;;;;;;;1.23;1.13;;;25.30;99.90;;;;;;4991070;28;20179;-64
2022/07/13 07:48:55;;;;;;;1.40;1.30;;;25.40;99.90;;;;;;4991019;28;20188;-64
2022/07/13 07:51:21;;;;;;;1.87;1.77;;;26.00;99.90;;;;;;4991011;28;20165;-64
2022/07/13 07:53:46;;;;;;;1.90;1.63;;;26.10;99.90;;;;;;4990547;28;20513;-64
2022/07/13 07:56:12;;;;;;;2.70;1.50;;;25.60;99.90;;;;;;4990594;28;20268;-64
2022/07/13 07:58:38;;;;;;;2.03;1.50;;;26.20;99.90;;;;;;4990792;28;20161;-64
2022/07/13 08:01:04;;;;;;;2.73;1.60;;;26.00;99.90;;;;;;4990658;28;20212;-64
2022/07/13 08:03:30;;;;;;;1.30;1.20;;;26.10;99.90;;;;;;4990440;28;21083;-64
2022/07/13 08:05:57;;;;;;;1.83;1.00;;;26.50;99.90;;;;;;4990469;28;20161;-65
2022/07/13 08:08:23;;;;;;;1.70;1.20;;;26.30;99.90;;;;;;4990370;28;20686;-64
2022/07/13 08:10:48;;;;;;;1.67;1.50;;;26.50;99.90;;;;;;5007497;28;20885;-64
2022/07/13 08:13:14;;;;;;;1.87;1.30;;;26.50;99.90;;;;;;5010164;28;20442;-64
2022/07/13 08:15:39;;;;;;;2.27;2.07;;;27.20;99.30;;;;;;5006666;28;20184;-64
2022/07/13 08:18:05;;;;;;;1.77;1.50;;;27.20;98.30;;;;;;4990471;28;20534;-64
2022/07/13 08:20:31;;;;;;;2.37;1.60;;;27.10;97.90;;;;;;4991383;28;20173;-64
2022/07/13 08:22:56;;;;;;;2.03;1.20;;;26.70;99.30;;;;;;4992862;28;20209;-64
2022/07/13 08:25:23;;;;;;;1.47;1.37;;;26.50;98.50;;;;;;4994077;28;20730;-64
2022/07/13 08:27:48;;;;;;;1.47;1.37;;;26.90;98.60;;;;;;4994354;28;20204;-65
2022/07/13 08:30:14;;;;;;;1.73;1.50;;;27.20;97.70;;;;;;4994194;28;20929;-65
2022/07/13 08:32:40;;;;;;;1.53;1.30;;;27.10;98.40;;;;;;4994089;28;20317;-65
2022/07/13 08:40:38;;;;;;;1.30;1.20;;;27.40;97.40;;;;;;4994041;28;20402;-66
2022/07/13 08:43:04;;;;;;;1.30;1.20;;;27.20;97.90;;;;;;4993902;28;20412;-64
2022/07/13 08:45:30;;;;;;;1.30;1.00;;;27.70;97.80;;;;;;4994109;28;20434;-64
2022/07/13 08:47:57;;;;;;;2.10;1.30;;;28.20;95.70;;;;;;5009386;28;20196;-65
2022/07/13 08:50:25;;;;;;;1.10;1.00;;;28.20;96.10;;;;;;5009373;28;20427;-65
2022/07/13 08:52:51;;;;;;;1.97;1.10;;;29.10;94.50;;;;;;4994381;28;20440;-65
2022/07/13 08:55:17;;;;;;;1.30;1.20;;;28.60;95.30;;;;;;4994386;28;20452;-65
2022/07/13 08:57:43;;;;;;;4.47;4.07;;;28.20;94.80;;;;;;4994455;28;20204;-64
2022/07/13 09:00:13;;;;;;;1.47;1.37;;;28.80;95.20;;;;;;4994266;28;20401;-65
2022/07/13 09:02:39;;;;;;;1.40;1.10;;;29.00;93.70;;;;;;4994080;28;20300;-66
2022/07/13 09:05:06;;;;;;;1.47;1.20;;;28.60;94.00;;;;;;4993667;28;20515;-65
2022/07/13 09:07:34;;;;;;;2.27;1.20;;;28.70;94.00;;;;;;4993742;28;20444;-66
2022/07/13 09:10:02;;;;;;;2.03;1.20;;;28.40;93.40;;;;;;4998891;28;20530;-66
2022/07/13 09:12:29;;;;;;;2.17;1.10;;;28.60;95.10;;;;;;5013084;28;20421;-65
2022/07/13 09:15:00;;;;;;;4.20;0.90;;;29.50;92.50;;;;;;5012905;28;20426;-65
2022/07/13 09:17:33;;;;;;;1.17;1.07;;;29.20;92.70;;;;;;4995249;28;20743;-65
2022/07/13 09:20:02;;;;;;;1.23;1.13;;;29.60;91.50;;;;;;4993496;28;20763;-65
2022/07/13 09:22:27;;;;;;;1.87;1.50;;;29.90;91.70;;;;;;4993191;28;20833;-64
2022/07/13 09:24:56;;;;;;;2.93;2.63;;;30.00;90.40;;;;;;4993023;28;20417;-66
2022/07/13 09:27:22;;;;;;;1.40;1.10;;;30.60;90.60;;;;;;4993214;28;20184;-66
2022/07/13 09:29:48;;;;;;;1.50;1.40;;;31.40;86.90;;;;;;4993346;28;20422;-65
2022/07/13 09:32:14;;;;;;;1.40;1.30;;;30.60;87.90;;;;;;4992933;28;20424;-63
2022/07/13 09:34:53;;;;;;;1.20;1.10;;;30.40;89.70;;;;;;4992975;28;20366;-64
2022/07/13 09:37:27;;;;;;;1.63;1.53;;;29.40;89.20;;;;;;4992952;28;20960;-65
2022/07/13 09:40:07;;;;;;;1.30;1.20;;;29.90;89.10;;;;;;4992836;28;20530;-65
2022/07/13 09:42:37;;;;;;;1.30;1.20;;;29.90;89.60;;;;;;4991111;28;20543;-64
2022/07/13 09:47:53;;;;;;;1.40;1.23;;;29.70;89.10;;;;;;4992454;28;20499;-67
2022/07/13 09:50:23;;;;;;;1.20;1.10;;;29.80;88.30;;;;;;4992371;28;20884;-65
2022/07/13 09:52:50;;;;;;;1.83;1.20;;;29.00;90.10;;;;;;4992224;28;20416;-65
2022/07/13 09:55:20;;;;;;;2.40;1.20;;;30.00;88.70;;;;;;4991911;28;20452;-66
2022/07/13 09:57:48;;;;;;;3.47;1.30;;;29.80;88.30;;;;;;4992949;28;20882;-66
2022/07/13 10:00:17;;;;;;;1.40;1.20;;;29.40;87.10;;;;;;4991993;28;20423;-66
2022/07/13 10:02:46;;;;;;;1.20;1.10;;;30.00;88.40;;;;;;4992101;28;20824;-64
2022/07/13 10:05:18;;;;;;;1.17;1.00;;;30.20;88.80;;;;;;4991976;28;21062;-66
2022/07/13 10:07:45;;;;;;;3.40;1.53;;;29.90;89.50;;;;;;4992144;28;20420;-65
2022/07/13 10:10:12;;;;;;;3.90;1.37;;;29.60;87.50;;;;;;4995515;28;20407;-66
2022/07/13 10:12:38;;;;;;;1.40;1.10;;;29.40;90.10;;;;;;5011569;28;20783;-65
2022/07/13 10:15:05;;;;;;;1.07;0.90;;;28.70;89.20;;;;;;5011151;28;20510;-66
2022/07/13 10:17:31;;;;;;;1.27;1.17;;;28.90;90.10;;;;;;4993015;28;20259;-66
2022/07/13 10:19:56;;;;;;;1.50;1.20;;;29.10;89.70;;;;;;4992062;28;20922;-66
2022/07/13 10:22:28;;;;;;;1.37;1.20;;;28.90;89.10;;;;;;4991703;28;20227;-65
2022/07/13 10:24:55;;;;;;;2.80;1.40;;;28.70;90.00;;;;;;4991485;28;20273;-65
2022/07/13 10:27:28;;;;;;;1.30;1.10;;;29.60;86.30;;;;;;4991345;28;20411;-64
2022/07/13 10:29:55;;;;;;;1.40;1.30;;;30.10;83.90;;;;;;4991551;28;20483;-64
2022/07/13 10:32:26;;;;;;;1.43;1.30;;;29.60;86.00;;;;;;4991089;28;20484;-65
2022/07/13 10:35:09;;;;;;;1.20;1.00;;;29.80;88.20;;;;;;4991104;28;20498;-65
2022/07/13 10:37:58;;;;;;;1.10;1.00;;;30.00;86.40;;;;;;4991140;28;20776;-65
2022/07/13 10:40:27;;;;;;;4.63;3.53;;;30.10;84.10;;;;;;4991326;28;20400;-65
2022/07/13 10:42:53;;;;;;;1.67;1.10;;;31.20;83.00;;;;;;4991796;28;20442;-65
2022/07/13 10:48:21;;;;;;;1.53;1.40;;;30.90;77.80;;;;;;4991160;28;20176;-65
2022/07/13 10:50:52;;;;;;;0.93;0.90;;;30.40;80.00;;;;;;4991135;28;20403;-65
2022/07/13 10:53:19;;;;;;;1.87;1.33;;;30.80;79.00;;;;;;4978086;28;20938;-65
2022/07/13 10:55:46;;;;;;;1.70;1.60;;;30.60;78.50;;;;;;4971658;28;20417;-65
2022/07/13 10:58:31;;;;;;;1.47;1.37;;;29.80;80.40;;;;;;4971730;28;20460;-65
2022/07/13 11:00:58;;;;;;;3.33;1.20;;;30.30;75.10;;;;;;4971590;28;20456;-65
2022/07/13 11:03:30;;;;;;;1.50;1.20;;;30.00;75.20;;;;;;4971974;28;20401;-65
2022/07/13 11:06:08;;;;;;;1.30;1.20;;;30.00;75.70;;;;;;4971519;28;20446;-66
2022/07/13 11:08:37;;;;;;;1.20;1.10;;;29.80;71.60;;;;;;4974685;28;20407;-64
2022/07/13 11:11:28;;;;;;;1.10;1.00;;;30.30;69.90;;;;;;5001528;28;20440;-64
2022/07/13 11:13:53;;;;;;;1.70;1.20;;;30.10;71.60;;;;;;5010659;28;20499;-65
2022/07/13 11:16:45;;;;;;;1.43;1.33;;;29.30;71.50;;;;;;5002080;28;20432;-65
2022/07/13 11:19:11;;;;;;;1.30;1.20;;;29.40;73.40;;;;;;4971523;28;20177;-64
2022/07/13 11:22:08;;;;;;;2.17;1.00;;;29.40;76.00;;;;;;4971307;28;20456;-64
2022/07/13 11:27:40;;;;;;;1.93;1.20;;;29.60;76.30;;;;;;4971140;28;20795;-65
2022/07/13 11:30:07;;;;;;;3.20;1.40;;;29.70;76.40;;;;;;4987268;28;20406;-64
2022/07/13 11:32:33;;;;;;;2.20;1.40;;;29.40;78.10;;;;;;4990147;28;20408;-64
2022/07/13 11:34:59;;;;;;;1.43;1.20;;;29.70;77.30;;;;;;4988735;28;20534;-64
2022/07/13 11:37:25;;;;;;;2.53;1.10;;;29.60;78.50;;;;;;4990551;28;20173;-64
2022/07/13 11:39:51;;;;;;;1.33;1.20;;;28.80;78.10;;;;;;4990522;28;20400;-65
2022/07/13 11:42:23;;;;;;;1.33;1.23;;;29.20;78.10;;;;;;4990175;28;20450;-64
2022/07/13 11:44:52;;;;;;;2.37;1.30;;;29.50;77.20;;;;;;4990331;28;20668;-63
2022/07/13 11:47:17;;;;;;;1.50;1.30;;;29.60;76.80;;;;;;4990247;28;20411;-65
2022/07/13 11:49:54;;;;;;;1.83;1.47;;;29.20;78.00;;;;;;4990369;28;20405;-64
2022/07/13 11:52:20;;;;;;;1.90;1.80;;;28.80;79.40;;;;;;4990226;28;20709;-64
2022/07/13 11:55:04;;;;;;;1.50;1.37;;;28.70;80.60;;;;;;4989792;28;20447;-64
2022/07/13 11:57:31;;;;;;;1.50;1.30;;;28.50;81.20;;;;;;4994248;28;20883;-64
2022/07/13 12:00:07;;;;;;;2.53;1.37;;;28.90;81.10;;;;;;4994520;28;20414;-64
2022/07/13 12:02:34;;;;;;;2.33;1.37;;;28.70;82.40;;;;;;4994000;28;20817;-64
2022/07/13 12:05:00;;;;;;;1.50;1.40;;;28.80;81.20;;;;;;4993982;28;20431;-65
2022/07/13 12:07:30;;;;;;;1.20;1.10;;;29.00;83.10;;;;;;4994514;28;20415;-64
2022/07/13 12:10:07;;;;;;;2.23;1.37;;;29.00;81.10;;;;;;4996489;28;20187;-64
2022/07/13 12:12:38;;;;;;;1.83;1.20;;;29.40;82.00;;;;;;5013733;28;20766;-64
2022/07/13 12:15:05;;;;;;;1.07;0.97;;;29.10;81.70;;;;;;4995175;28;20561;-64
2022/07/13 12:17:50;;;;;;;2.07;1.60;;;29.30;81.20;;;;;;4993720;28;20412;-65
2022/07/13 12:20:23;;;;;;;1.60;1.43;;;29.60;79.60;;;;;;4994158;28;20447;-65
2022/07/13 12:22:57;;;;;;;2.10;1.63;;;29.50;79.10;;;;;;4993807;28;20463;-65
2022/07/13 12:25:27;;;;;;;2.33;1.43;;;29.70;79.80;;;;;;4993905;28;20423;-63
2022/07/13 12:27:54;;;;;;;1.77;1.67;;;29.30;78.80;;;;;;4993876;28;20495;-64
2022/07/13 12:30:20;;;;;;;1.80;1.70;;;29.90;78.40;;;;;;4975553;28;20404;-64
2022/07/13 12:33:00;;;;;;;1.80;1.50;;;30.40;75.10;;;;;;4974493;28;20467;-64
2022/07/13 12:35:31;;;;;;;1.50;1.40;;;30.70;73.60;;;;;;4979266;28;20475;-65
2022/07/13 12:37:57;;;;;;;1.27;1.17;;;30.70;74.10;;;;;;4993864;28;20483;-65
2022/07/13 12:40:41;;;;;;;1.20;1.10;;;30.50;73.50;;;;;;4993933;28;20985;-64
2022/07/13 12:43:35;;;;;;;2.17;1.83;;;30.60;72.90;;;;;;4992969;28;20882;-65
2022/07/13 12:46:02;;;;;;;1.53;1.23;;;30.20;75.40;;;;;;4993936;28;20397;-65
2022/07/13 12:48:32;;;;;;;1.30;1.20;;;30.40;74.60;;;;;;4993779;28;20431;-65
2022/07/13 12:51:03;;;;;;;1.80;1.70;;;30.40;73.60;;;;;;4993688;28;20478;-65
2022/07/13 12:53:47;;;;;;;2.00;1.70;;;30.70;71.50;;;;;;4993416;28;20404;-65
2022/07/13 12:56:20;;;;;;;1.33;1.23;;;30.60;68.50;;;;;;5034182;23;20490;-73
2022/07/13 12:58:48;;;;;;;1.00;0.90;;;30.10;68.10;;;;;;4995456;28;20387;-73
2022/07/13 13:01:31;;;;;;;1.50;1.10;;;29.90;67.10;;;;;;4994865;28;20452;-73